New Life — WDE7050 — position and weather

sailwx.info

Track history (hours):
 
Tides and Currents Weather Stations Pressure Air Temp Water Temp Dewpoint Dewpoint Depression Visibility Wind Speed Wind Dir Waves Ship Positions

New Life

Owner: New Life Fisheries, Inc., Siletz, OR. More information available from US FCC via Universal Licensing System and Coast Guard Vessel Documentation Center.

Last reported at 2018-Feb-24 07:49 UTC. Time now 2018-Jun-18 19:02 UTC.
Position N 54°43' W 130°52'.
Warning: this ship's position is months out of date.

Type: Fishing. MMSI: 367388280.

Date/timePositionNaut miles runAvg speedWind from/ knotsBaromVisibWave heightAir tempDewpointWater temp
2018-Feb-24 07:49N 54°43' W 130°52'3 8.7
2018-Feb-24 07:29N 54°40' W 130°49'5 8.7
2018-Feb-24 06:57N 54°37' W 130°44'4 8.7
2018-Feb-24 06:30N 54°33' W 130°43'4 8.8
2018-Feb-24 06:00N 54°29' W 130°41'4 9.1
2018-Feb-24 05:30N 54°24' W 130°38'5 9.0
2018-Feb-24 05:00N 54°20' W 130°35'5 9.3
2018-Feb-24 04:30N 54°16' W 130°32'4 8.8
2018-Feb-24 04:00N 54°12' W 130°28'4 8.8
2018-Feb-24 03:30N 54°08' W 130°24'4 8.5
2018-Feb-24 03:00N 54°05' W 130°19'5 9.3
2018-Feb-24 02:30N 54°02' W 130°14'5 9.6
2018-Feb-24 02:00N 53°57' W 130°13'5 9.2
2018-Feb-24 01:30N 53°53' W 130°17'4 8.2
2018-Feb-24 01:00N 53°49' W 130°18'4 8.8
2018-Feb-24 00:30N 53°46' W 130°13'99 8.7
2018-Feb-23 13:05N 52°20' W 128°50'1 9.5
2018-Feb-23 12:56N 52°18' W 128°50'4 9.4
2018-Feb-23 12:29N 52°14' W 128°49'4 9.5
2018-Feb-23 12:00N 52°10' W 128°48'5 9.7
2018-Feb-23 11:30N 52°05' W 128°47'510.0
2018-Feb-23 11:01N 51°60' W 128°46'510.1
2018-Feb-23 10:31N 51°55' W 128°45'5 9.5
2018-Feb-23 10:01N 51°50' W 128°44'5 9.4
2018-Feb-23 09:30N 51°46' W 128°43'5 9.7
2018-Feb-23 09:01N 51°41' W 128°42'5 9.6
2018-Feb-23 08:30N 51°36' W 128°40'5 9.5
2018-Feb-23 08:00N 51°31' W 128°39'4 8.8
2018-Feb-23 07:30N 51°27' W 128°38'4 8.9
2018-Feb-23 07:00N 51°22' W 128°38'4 8.7
2018-Feb-23 06:30N 51°18' W 128°37'4 8.4
2018-Feb-23 06:00N 51°14' W 128°36'4 8.4
2018-Feb-23 05:30N 51°10' W 128°35'4 8.6
2018-Feb-23 05:00N 51°06' W 128°34'4 8.7
2018-Feb-23 04:30N 51°01' W 128°33'3 6.3
2018-Feb-23 04:00N 50°58' W 128°32'4 8.7
2018-Feb-23 03:30N 50°54' W 128°31'4 8.6
2018-Feb-23 03:00N 50°50' W 128°30'4 7.7
2018-Feb-23 02:30N 50°46' W 128°29'289 8.2
2018-Feb-21 15:05N 46°24' W 125°25'1 9.1
2018-Feb-21 14:59N 46°23' W 125°24'5 9.0
2018-Feb-21 14:27N 46°19' W 125°21'6 8.9
2018-Feb-21 13:50N 46°14' W 125°17'3 8.9
2018-Feb-21 13:30N 46°11' W 125°15'4 8.7
2018-Feb-21 13:00N 46°08' W 125°12'5 8.7
2018-Feb-21 12:29N 46°04' W 125°09'4 8.7
2018-Feb-21 12:00N 45°60' W 125°06'4 8.5
2018-Feb-21 11:30N 45°56' W 125°03'4 8.1
2018-Feb-21 11:01N 45°53' W 125°01'4 7.7
2018-Feb-21 10:30N 45°49' W 124°58'4 7.8
2018-Feb-21 10:00N 45°46' W 124°56'4 7.9
2018-Feb-21 09:31N 45°42' W 124°53'4 7.9
2018-Feb-21 09:00N 45°39' W 124°50'6 8.1
2018-Feb-21 08:15N 45°33' W 124°47'2 8.0
2018-Feb-21 08:00N 45°32' W 124°45'5 8.3
2018-Feb-21 07:28N 45°27' W 124°42'  
Track history (hours):
 
Tides and Currents Weather Stations Pressure Air Temp Water Temp Dewpoint Dewpoint Depression Visibility Wind Speed Wind Dir Waves Ship Positions

New Life

Owner: New Life Fisheries, Inc., Siletz, OR. More information available from US FCC via Universal Licensing System and Coast Guard Vessel Documentation Center.

Last reported at 2018-Feb-24 07:49 UTC. Time now 2018-Jun-18 19:02 UTC.
Position N 54°43' W 130°52'.
Warning: this ship's position is months out of date.

Type: Fishing. MMSI: 367388280.

Date/timePositionNaut miles runAvg speedWind from/ knotsBaromVisibWave heightAir tempDewpointWater temp
2018-Feb-24 07:49N 54°43' W 130°52'3 8.7
2018-Feb-24 07:29N 54°40' W 130°49'5 8.7
2018-Feb-24 06:57N 54°37' W 130°44'4 8.7
2018-Feb-24 06:30N 54°33' W 130°43'4 8.8
2018-Feb-24 06:00N 54°29' W 130°41'4 9.1
2018-Feb-24 05:30N 54°24' W 130°38'5 9.0
2018-Feb-24 05:00N 54°20' W 130°35'5 9.3
2018-Feb-24 04:30N 54°16' W 130°32'4 8.8
2018-Feb-24 04:00N 54°12' W 130°28'4 8.8
2018-Feb-24 03:30N 54°08' W 130°24'4 8.5
2018-Feb-24 03:00N 54°05' W 130°19'5 9.3
2018-Feb-24 02:30N 54°02' W 130°14'5 9.6
2018-Feb-24 02:00N 53°57' W 130°13'5 9.2
2018-Feb-24 01:30N 53°53' W 130°17'4 8.2
2018-Feb-24 01:00N 53°49' W 130°18'4 8.8
2018-Feb-24 00:30N 53°46' W 130°13'99 8.7
2018-Feb-23 13:05N 52°20' W 128°50'1 9.5
2018-Feb-23 12:56N 52°18' W 128°50'4 9.4
2018-Feb-23 12:29N 52°14' W 128°49'4 9.5
2018-Feb-23 12:00N 52°10' W 128°48'5 9.7
2018-Feb-23 11:30N 52°05' W 128°47'510.0
2018-Feb-23 11:01N 51°60' W 128°46'510.1
2018-Feb-23 10:31N 51°55' W 128°45'5 9.5
2018-Feb-23 10:01N 51°50' W 128°44'5 9.4
2018-Feb-23 09:30N 51°46' W 128°43'5 9.7
2018-Feb-23 09:01N 51°41' W 128°42'5 9.6
2018-Feb-23 08:30N 51°36' W 128°40'5 9.5
2018-Feb-23 08:00N 51°31' W 128°39'4 8.8
2018-Feb-23 07:30N 51°27' W 128°38'4 8.9
2018-Feb-23 07:00N 51°22' W 128°38'4 8.7
2018-Feb-23 06:30N 51°18' W 128°37'4 8.4
2018-Feb-23 06:00N 51°14' W 128°36'4 8.4
2018-Feb-23 05:30N 51°10' W 128°35'4 8.6
2018-Feb-23 05:00N 51°06' W 128°34'4 8.7
2018-Feb-23 04:30N 51°01' W 128°33'3 6.3
2018-Feb-23 04:00N 50°58' W 128°32'4 8.7
2018-Feb-23 03:30N 50°54' W 128°31'4 8.6
2018-Feb-23 03:00N 50°50' W 128°30'4 7.7
2018-Feb-23 02:30N 50°46' W 128°29'289 8.2
2018-Feb-21 15:05N 46°24' W 125°25'1 9.1
2018-Feb-21 14:59N 46°23' W 125°24'5 9.0
2018-Feb-21 14:27N 46°19' W 125°21'6 8.9
2018-Feb-21 13:50N 46°14' W 125°17'3 8.9
2018-Feb-21 13:30N 46°11' W 125°15'4 8.7
2018-Feb-21 13:00N 46°08' W 125°12'5 8.7
2018-Feb-21 12:29N 46°04' W 125°09'4 8.7
2018-Feb-21 12:00N 45°60' W 125°06'4 8.5
2018-Feb-21 11:30N 45°56' W 125°03'4 8.1
2018-Feb-21 11:01N 45°53' W 125°01'4 7.7
2018-Feb-21 10:30N 45°49' W 124°58'4 7.8
2018-Feb-21 10:00N 45°46' W 124°56'4 7.9
2018-Feb-21 09:31N 45°42' W 124°53'4 7.9
2018-Feb-21 09:00N 45°39' W 124°50'6 8.1
2018-Feb-21 08:15N 45°33' W 124°47'2 8.0
2018-Feb-21 08:00N 45°32' W 124°45'5 8.3
2018-Feb-21 07:28N 45°27' W 124°42'  

Dump ship's entire track history